createdAt,value
2019-03-25T00:01:33.018Z,5.29
2019-03-25T00:05:37.913Z,5.26
2019-03-25T00:09:42.806Z,5.28
2019-03-25T00:13:47.762Z,5.68
2019-03-25T00:17:52.650Z,5.56
2019-03-25T00:21:58.006Z,5.42
2019-03-25T00:26:02.899Z,5.31
2019-03-25T00:30:07.964Z,5.21
2019-03-25T00:34:12.838Z,5.15
2019-03-25T00:38:17.730Z,5.08
2019-03-25T00:42:23.693Z,5.02
2019-03-25T00:46:28.587Z,4.96
2019-03-25T00:50:33.479Z,4.91
2019-03-25T00:54:49.323Z,4.85
2019-03-25T00:58:44.964Z,4.80
2019-03-25T01:02:49.862Z,4.75
2019-03-25T01:06:54.762Z,4.70
2019-03-25T01:10:59.655Z,4.66
2019-03-25T01:15:06.926Z,4.63
2019-03-25T01:19:11.812Z,4.56
2019-03-25T01:23:16.713Z,4.53
2019-03-25T01:27:21.604Z,4.48
2019-03-25T01:31:26.495Z,4.44
2019-03-25T01:35:31.398Z,4.39
2019-03-25T01:39:36.306Z,4.37
2019-03-25T01:43:41.194Z,4.34
2019-03-25T01:47:46.108Z,4.33
2019-03-25T01:51:51.002Z,4.31
2019-03-25T01:55:55.896Z,4.29
2019-03-25T02:00:00.790Z,4.25
2019-03-25T02:04:05.685Z,4.21
2019-03-25T02:08:10.575Z,4.22
2019-03-25T02:12:15.473Z,4.22
2019-03-25T02:16:20.360Z,4.16
2019-03-25T02:20:26.787Z,4.18
2019-03-25T02:24:32.898Z,4.14
2019-03-25T02:28:37.788Z,4.12
2019-03-25T02:32:42.688Z,4.08
2019-03-25T02:36:47.586Z,4.13
2019-03-25T02:40:52.478Z,4.15
2019-03-25T02:44:57.380Z,4.14
2019-03-25T02:49:02.259Z,4.12
2019-03-25T02:53:07.154Z,4.16
2019-03-25T02:57:12.055Z,4.16
2019-03-25T03:01:16.991Z,4.18
2019-03-25T03:05:21.854Z,4.25
2019-03-25T03:09:26.742Z,4.23
2019-03-25T03:13:31.637Z,4.25
2019-03-25T03:17:36.539Z,4.35
2019-03-25T03:21:41.499Z,4.46
2019-03-25T03:25:56.965Z,4.51
2019-03-25T03:29:52.986Z,4.62
2019-03-25T03:33:57.903Z,4.61
2019-03-25T03:38:02.782Z,4.57
2019-03-25T03:42:07.749Z,4.56
2019-03-25T03:46:12.646Z,4.63
2019-03-25T03:50:25.073Z,4.71
2019-03-25T03:54:29.956Z,4.74
2019-03-25T03:58:35.033Z,4.67
2019-03-25T04:02:40.015Z,4.53
2019-03-25T04:06:44.888Z,4.45
2019-03-25T04:10:49.789Z,4.35
2019-03-25T04:14:54.685Z,4.28
2019-03-25T04:18:59.570Z,4.19
2019-03-25T04:23:04.470Z,4.12
2019-03-25T04:27:09.367Z,4.09
2019-03-25T04:31:14.264Z,4.16
2019-03-25T04:35:19.149Z,4.35
2019-03-25T04:39:24.042Z,4.46
2019-03-25T04:43:28.946Z,4.57
2019-03-25T04:47:33.841Z,4.74
2019-03-25T04:51:38.737Z,4.80
2019-03-25T04:55:43.635Z,4.91
2019-03-25T04:59:48.522Z,5.00
2019-03-25T05:03:54.490Z,5.17
2019-03-25T05:07:59.384Z,5.30
2019-03-25T05:12:04.284Z,5.42
2019-03-25T05:16:09.180Z,5.47
2019-03-25T05:20:14.066Z,5.54
2019-03-25T05:24:18.969Z,5.63
2019-03-25T05:28:23.865Z,5.69
2019-03-25T05:32:28.760Z,5.73
2019-03-25T05:36:33.666Z,5.74
2019-03-25T05:40:38.553Z,5.75
2019-03-25T05:44:43.456Z,5.76
2019-03-25T05:48:48.347Z,5.76
2019-03-25T05:52:53.250Z,5.79
2019-03-25T05:57:02.758Z,5.90
2019-03-25T06:01:04.917Z,5.99
2019-03-25T06:05:09.868Z,6.09
2019-03-25T06:09:14.768Z,6.11
2019-03-25T06:13:19.664Z,6.12
2019-03-25T06:17:24.563Z,6.05
2019-03-25T06:21:29.457Z,6.34
2019-03-25T06:25:34.350Z,6.61
2019-03-25T06:29:39.244Z,6.56
2019-03-25T06:33:44.150Z,6.35
2019-03-25T06:37:49.040Z,6.24
2019-03-25T06:41:53.941Z,6.25
2019-03-25T06:45:58.899Z,6.46
2019-03-25T06:50:06.000Z,6.81
2019-03-25T06:54:10.885Z,6.73
2019-03-25T06:58:15.789Z,6.70
2019-03-25T07:02:20.684Z,6.93
2019-03-25T07:06:25.572Z,7.30
2019-03-25T07:10:32.301Z,7.37
2019-03-25T07:14:37.190Z,7.29
2019-03-25T07:18:42.086Z,7.19
2019-03-25T07:22:46.982Z,7.41
2019-03-25T07:26:51.887Z,8.16
2019-03-25T07:30:56.767Z,7.78
2019-03-25T07:35:01.665Z,7.27
2019-03-25T07:39:07.130Z,7.10
2019-03-25T07:43:12.028Z,7.07
2019-03-25T07:47:16.928Z,6.98
2019-03-25T07:51:21.812Z,7.02
2019-03-25T07:55:26.726Z,7.25
2019-03-25T07:59:31.653Z,7.22
2019-03-25T08:03:36.570Z,7.35
2019-03-25T08:07:41.447Z,7.51
2019-03-25T08:11:46.391Z,7.59
2019-03-25T08:15:51.255Z,7.75
2019-03-25T08:19:56.116Z,8.03
2019-03-25T08:24:01.013Z,7.86
2019-03-25T08:28:05.988Z,7.69
2019-03-25T08:32:10.874Z,7.79
2019-03-25T08:36:15.766Z,7.97
2019-03-25T08:40:20.671Z,8.11
2019-03-25T08:44:25.565Z,8.14
2019-03-25T08:48:30.464Z,8.37
2019-03-25T08:52:35.356Z,8.27
2019-03-25T08:56:41.280Z,8.17
2019-03-25T09:00:46.173Z,7.69
2019-03-25T09:04:51.073Z,7.55
2019-03-25T09:08:56.799Z,8.04
2019-03-25T09:13:01.714Z,8.21
2019-03-25T09:17:06.880Z,8.40
2019-03-25T09:21:12.726Z,8.46
2019-03-25T09:25:17.973Z,8.50
2019-03-25T09:29:22.871Z,8.50
2019-03-25T09:33:27.765Z,8.53
2019-03-25T09:37:32.655Z,8.49
2019-03-25T09:41:38.616Z,8.77
2019-03-25T09:45:43.512Z,9.11
2019-03-25T09:49:49.388Z,9.06
2019-03-25T09:53:55.256Z,8.53
2019-03-25T09:58:00.152Z,8.12
2019-03-25T10:02:05.191Z,8.16
2019-03-25T10:06:10.090Z,8.20
2019-03-25T10:10:15.120Z,8.29
2019-03-25T10:14:20.018Z,8.32
2019-03-25T10:18:24.921Z,8.27
2019-03-25T10:22:29.818Z,8.29
2019-03-25T10:26:34.703Z,8.27
2019-03-25T10:30:39.659Z,8.01
2019-03-25T10:34:45.917Z,7.82
2019-03-25T10:38:50.814Z,7.71
2019-03-25T10:42:55.705Z,7.86
2019-03-25T10:47:00.635Z,8.04
2019-03-25T10:51:05.603Z,8.45
2019-03-25T10:55:11.734Z,9.10
2019-03-25T10:59:17.703Z,9.10
2019-03-25T11:03:22.605Z,8.51
2019-03-25T11:07:29.463Z,8.18
2019-03-25T11:11:34.094Z,8.28
2019-03-25T11:15:38.992Z,8.18
2019-03-25T11:19:43.891Z,8.32
2019-03-25T11:23:48.787Z,8.38
2019-03-25T11:27:54.591Z,8.28
2019-03-25T11:31:59.879Z,8.41
2019-03-25T11:36:05.112Z,8.61
2019-03-25T11:40:11.232Z,8.71
2019-03-25T11:44:16.135Z,8.80
2019-03-25T11:48:21.022Z,8.98
2019-03-25T11:52:25.903Z,8.76
2019-03-25T11:56:30.788Z,8.39
2019-03-25T12:00:36.745Z,8.36
2019-03-25T12:04:41.635Z,8.38
2019-03-25T12:08:46.533Z,8.51
2019-03-25T12:12:51.434Z,8.57
2019-03-25T12:16:56.324Z,8.64
2019-03-25T12:21:01.208Z,8.69
2019-03-25T12:25:07.713Z,9.10
2019-03-25T12:29:12.604Z,9.25
2019-03-25T12:33:17.508Z,9.15
2019-03-25T12:37:22.387Z,9.20
2019-03-25T12:41:27.343Z,9.18
2019-03-25T12:45:32.243Z,9.25
2019-03-25T12:49:37.139Z,9.67
2019-03-25T12:53:42.029Z,9.63
2019-03-25T12:57:47.887Z,9.30
2019-03-25T13:01:53.507Z,9.03
2019-03-25T13:05:59.447Z,8.50
2019-03-25T13:10:05.879Z,8.46
2019-03-25T13:14:11.847Z,8.23
2019-03-25T13:18:16.731Z,7.99
2019-03-25T13:22:21.622Z,8.20
2019-03-25T13:26:27.597Z,8.31
2019-03-25T13:30:32.480Z,8.65
2019-03-25T13:34:38.439Z,9.12
2019-03-25T13:38:43.329Z,9.41
2019-03-25T13:42:48.379Z,9.08
2019-03-25T13:46:53.275Z,8.58
2019-03-25T13:50:58.170Z,8.21
2019-03-25T13:55:03.063Z,8.13
2019-03-25T13:59:07.954Z,8.08
2019-03-25T14:03:12.833Z,7.93
2019-03-25T14:07:17.723Z,7.71
2019-03-25T14:11:22.618Z,7.75
2019-03-25T14:15:27.511Z,7.99
2019-03-25T14:19:32.415Z,8.26
2019-03-25T14:23:37.282Z,8.47
2019-03-25T14:27:42.185Z,8.68
2019-03-25T14:31:47.062Z,8.79
2019-03-25T14:35:51.956Z,8.88
2019-03-25T14:39:57.922Z,9.16
2019-03-25T14:44:02.944Z,9.10
2019-03-25T14:48:07.821Z,8.85
2019-03-25T14:52:12.711Z,8.63
2019-03-25T14:56:17.614Z,8.33
2019-03-25T15:00:25.398Z,8.14
2019-03-25T15:04:29.103Z,8.00
2019-03-25T15:08:33.994Z,7.89
2019-03-25T15:12:38.879Z,7.60
2019-03-25T15:16:43.769Z,7.41
2019-03-25T15:20:48.664Z,7.65
2019-03-25T15:24:53.632Z,7.75
2019-03-25T15:28:58.522Z,7.88
2019-03-25T15:33:03.402Z,7.85
2019-03-25T15:37:08.305Z,7.87
2019-03-25T15:41:13.267Z,7.77
2019-03-25T15:45:18.168Z,7.68
2019-03-25T15:49:23.067Z,7.56
2019-03-25T15:53:28.836Z,7.45
2019-03-25T15:57:33.803Z,7.29
2019-03-25T16:01:38.705Z,7.20
2019-03-25T16:05:43.594Z,7.35
2019-03-25T16:09:48.486Z,7.60
2019-03-25T16:13:53.368Z,7.67
2019-03-25T16:17:58.259Z,7.89
2019-03-25T16:22:03.163Z,7.93
2019-03-25T16:26:08.046Z,7.73
2019-03-25T16:30:13.302Z,7.53
2019-03-25T16:34:23.098Z,7.43
2019-03-25T16:38:27.953Z,7.36
2019-03-25T16:42:32.847Z,7.33
2019-03-25T16:46:37.740Z,7.19
2019-03-25T16:50:42.635Z,6.88
2019-03-25T16:54:47.525Z,6.60
2019-03-25T16:58:52.411Z,6.40
2019-03-25T17:02:57.304Z,6.22
2019-03-25T17:07:02.197Z,6.14
2019-03-25T17:11:08.192Z,6.10
2019-03-25T17:15:13.210Z,6.13
2019-03-25T17:19:18.094Z,6.12
2019-03-25T17:23:22.984Z,6.18
2019-03-25T17:27:27.879Z,6.11
2019-03-25T17:31:32.771Z,6.04
2019-03-25T17:35:37.665Z,6.00
2019-03-25T17:39:42.552Z,6.15
2019-03-25T17:43:47.434Z,6.13
2019-03-25T17:47:52.321Z,6.05
2019-03-25T17:51:57.220Z,6.03
2019-03-25T17:56:02.097Z,6.11
2019-03-25T18:00:10.000Z,6.06
2019-03-25T18:04:14.955Z,6.02
2019-03-25T18:08:19.860Z,6.01
2019-03-25T18:12:24.755Z,6.02
2019-03-25T18:16:29.713Z,5.96
2019-03-25T18:20:34.612Z,5.78
2019-03-25T18:24:39.501Z,5.73
2019-03-25T18:28:44.400Z,5.76
2019-03-25T18:32:49.298Z,5.86
2019-03-25T18:36:54.187Z,5.78
2019-03-25T18:40:59.081Z,5.66
2019-03-25T18:45:04.954Z,5.55
2019-03-25T18:49:09.850Z,5.44
2019-03-25T18:53:14.743Z,5.36
2019-03-25T18:57:19.648Z,5.25
2019-03-25T19:01:24.694Z,5.11
2019-03-25T19:05:29.577Z,5.06
2019-03-25T19:09:35.536Z,5.06
2019-03-25T19:13:40.438Z,5.12
2019-03-25T19:17:45.321Z,5.21
2019-03-25T19:21:50.242Z,5.24
2019-03-25T19:25:55.113Z,5.23
2019-03-25T19:30:00.029Z,5.25
2019-03-25T19:34:04.890Z,5.22
2019-03-25T19:38:09.780Z,5.17
2019-03-25T19:42:14.671Z,5.19
2019-03-25T19:46:19.573Z,5.25
2019-03-25T19:50:24.452Z,5.26
2019-03-25T19:54:29.344Z,5.28
2019-03-25T19:58:34.245Z,5.51
2019-03-25T20:02:39.188Z,5.82
2019-03-25T20:06:44.075Z,5.70
2019-03-25T20:10:48.948Z,5.51
2019-03-25T20:14:53.860Z,5.36
2019-03-25T20:18:58.775Z,5.26
2019-03-25T20:23:03.974Z,5.11
2019-03-25T20:27:08.821Z,4.92
2019-03-25T20:31:13.715Z,4.74
2019-03-25T20:35:18.606Z,4.62
2019-03-25T20:39:23.549Z,4.59
2019-03-25T20:43:28.395Z,4.62
2019-03-25T20:47:33.288Z,4.62
2019-03-25T20:51:38.186Z,4.67
2019-03-25T20:55:43.076Z,4.74
2019-03-25T20:59:49.031Z,4.78
2019-03-25T21:03:53.906Z,4.76
2019-03-25T21:07:58.828Z,4.74
2019-03-25T21:12:03.690Z,4.66
2019-03-25T21:16:08.577Z,4.63
2019-03-25T21:20:13.523Z,4.64
2019-03-25T21:24:18.410Z,4.70
2019-03-25T21:28:24.367Z,4.99
2019-03-25T21:32:29.272Z,5.07
2019-03-25T21:36:34.152Z,5.03
2019-03-25T21:40:39.052Z,5.02
2019-03-25T21:44:43.948Z,5.04
2019-03-25T21:48:48.895Z,5.06
2019-03-25T21:52:54.847Z,5.09
2019-03-25T21:56:59.781Z,5.15
2019-03-25T22:01:04.611Z,5.17
2019-03-25T22:05:09.491Z,5.22
2019-03-25T22:09:14.381Z,5.26
2019-03-25T22:13:19.274Z,5.29
2019-03-25T22:17:24.162Z,5.32
2019-03-25T22:21:29.620Z,5.33
2019-03-25T22:25:34.511Z,5.34
2019-03-25T22:29:39.407Z,5.31
2019-03-25T22:33:44.289Z,5.29
2019-03-25T22:37:49.186Z,5.30
2019-03-25T22:41:55.049Z,5.32
2019-03-25T22:45:59.926Z,5.36
2019-03-25T22:50:07.325Z,5.42
2019-03-25T22:54:13.186Z,5.42
2019-03-25T22:58:18.077Z,5.42
2019-03-25T23:02:22.971Z,5.43
2019-03-25T23:06:27.850Z,5.40
2019-03-25T23:10:32.738Z,5.33
2019-03-25T23:14:37.634Z,5.29
2019-03-25T23:18:42.523Z,5.29
2019-03-25T23:22:47.427Z,5.26
2019-03-25T23:26:52.318Z,5.23
2019-03-25T23:30:57.203Z,5.19
2019-03-25T23:35:02.098Z,5.17
2019-03-25T23:39:07.828Z,5.16
2019-03-25T23:43:14.293Z,5.37
2019-03-25T23:47:19.192Z,5.38
2019-03-25T23:51:24.129Z,5.41
2019-03-25T23:55:29.022Z,5.40
2019-03-25T23:59:33.916Z,5.43
